Time;durP1;ratioP1;P1;durP2;ratioP2;P2;SDS_P1;SDS_P2;PMS_P1;PMS_P2;Temp;Humidity;BMP_temperature;BMP_pressure;BME280_temperature;BME280_humidity;BME280_pressure;Samples;Min_cycle;Max_cycle;Signal;HPM_P1;HPM_P2
2023/03/30 00:00:21;;;;;;;2.60;2.40;;;;;;;1.14;80.15;100762.02;106689;1262;61321;-87
2023/03/30 00:02:52;;;;;;;2.40;2.20;;;;;;;1.14;80.24;100762.52;106527;1254;73884;-85
2023/03/30 00:05:22;;;;;;;3.20;2.90;;;;;;;1.13;80.24;100760.66;106489;1255;64639;-88
2023/03/30 00:07:51;;;;;;;2.40;2.20;;;;;;;1.11;80.49;100762.77;106513;1256;74233;-87
2023/03/30 00:10:22;;;;;;;4.20;3.40;;;;;;;1.12;80.63;100759.30;106350;1252;61891;-88
2023/03/30 00:12:52;;;;;;;2.60;2.40;;;;;;;1.12;80.65;100761.19;106708;1254;61316;-86
2023/03/30 00:15:23;;;;;;;3.10;2.80;;;;;;;1.12;80.54;100765.50;106468;1252;73010;-87
2023/03/30 00:17:53;;;;;;;4.50;2.70;;;;;;;1.11;80.64;100765.86;106661;1253;64827;-87
2023/03/30 00:20:22;;;;;;;3.40;3.10;;;;;;;1.12;80.68;100769.13;106423;1254;73797;-87
2023/03/30 00:22:53;;;;;;;3.20;2.90;;;;;;;1.12;80.92;100770.30;107640;1252;62435;-89
2023/03/30 00:25:23;;;;;;;3.20;2.90;;;;;;;1.13;80.67;100762.56;108587;1254;61053;-87
2023/03/30 00:27:51;;;;;;;4.40;2.90;;;;;;;1.15;80.90;100765.42;106326;1254;74030;-87
2023/03/30 00:30:20;;;;;;;3.30;3.00;;;;;;;1.16;80.97;100763.88;106589;1253;63570;-87
2023/03/30 00:32:49;;;;;;;3.10;2.80;;;;;;;1.18;80.98;100764.88;106262;1256;72422;-90
2023/03/30 00:35:18;;;;;;;3.80;3.30;;;;;;;1.18;80.96;100766.08;106321;1256;61958;-89
2023/03/30 00:37:50;;;;;;;3.40;2.80;;;;;;;1.19;81.15;100767.79;106246;1254;61017;-87
2023/03/30 00:40:19;;;;;;;3.60;3.10;;;;;;;1.18;81.00;100771.75;106234;1254;73963;-88
2023/03/30 00:42:48;;;;;;;3.60;3.20;;;;;;;1.16;81.03;100775.39;106283;1254;63852;-87
2023/03/30 00:45:32;;;;;;;3.90;3.50;;;;;;;1.16;80.97;100776.79;106379;1252;73603;-89
2023/03/30 00:48:05;;;;;;;3.20;2.80;;;;;;;1.16;80.96;100775.05;106288;1254;61601;-88
2023/03/30 00:50:37;;;;;;;3.10;2.90;;;;;;;1.19;80.94;100777.42;106307;1251;61256;-87
2023/03/30 00:53:15;;;;;;;3.30;3.00;;;;;;;1.21;80.83;100782.54;106291;1256;73830;-88
2023/03/30 00:55:45;;;;;;;3.40;3.10;;;;;;;1.21;80.77;100784.10;106188;1256;65383;-88
2023/03/30 00:58:14;;;;;;;3.90;3.40;;;;;;;1.21;80.85;100787.72;106355;1254;73740;-87
2023/03/30 01:01:05;;;;;;;5.00;3.50;;;;;;;1.19;81.13;100794.10;106040;1254;62188;-86
2023/03/30 01:03:46;;;;;;;4.70;3.30;;;;;;;1.19;81.42;100798.77;106081;1253;61339;-90
2023/03/30 01:06:23;;;;;;;3.40;3.10;;;;;;;1.20;81.65;100807.36;105994;1253;73111;-88
2023/03/30 01:08:52;;;;;;;4.20;3.30;;;;;;;1.21;81.73;100806.83;106317;1253;65155;-89
2023/03/30 01:11:20;;;;;;;2.90;2.70;;;;;;;1.23;81.79;100806.10;106698;1253;72002;-88
2023/03/30 01:13:50;;;;;;;4.10;3.30;;;;;;;1.23;81.59;100803.17;106389;1254;62229;-89
2023/03/30 01:16:34;;;;;;;3.70;3.30;;;;;;;1.23;81.83;100792.67;106081;1254;61053;-88
2023/03/30 01:19:28;;;;;;;5.90;2.80;;;;;;;1.22;81.64;100785.63;106257;1253;72295;-87
2023/03/30 01:22:30;;;;;;;3.30;2.90;;;;;;;1.20;81.47;100787.05;106293;1256;64530;-89
2023/03/30 01:25:13;;;;;;;4.60;2.70;;;;;;;1.17;81.58;100785.88;106426;1253;72324;-85
2023/03/30 01:28:13;;;;;;;3.00;2.80;;;;;;;1.17;81.61;100781.23;106544;1253;61333;-86
2023/03/30 01:31:03;;;;;;;3.70;2.70;;;;;;;1.18;81.79;100782.61;106267;1256;61166;-88
2023/03/30 01:33:39;;;;;;;3.20;2.60;;;;;;;1.20;81.57;100779.30;106146;1253;74050;-87
2023/03/30 01:36:36;;;;;;;3.20;2.90;;;;;;;1.22;81.17;100777.19;106077;1256;63812;-87
2023/03/30 01:39:22;;;;;;;3.40;3.10;;;;;;;1.20;81.16;100781.02;106092;1259;73558;-87
2023/03/30 01:42:01;;;;;;;3.20;2.90;;;;;;;1.20;81.03;100786.88;106229;1256;60569;-86
2023/03/30 01:44:35;;;;;;;4.80;3.00;;;;;;;1.19;80.97;100784.63;106071;1256;61311;-87
2023/03/30 01:47:10;;;;;;;;;;;;;;;1.18;80.97;100778.31;106333;1253;73726;-88
2023/03/30 01:49:39;;;;;;;3.00;2.80;;;;;;;1.15;80.98;100774.57;106214;1253;63893;-88
2023/03/30 01:52:13;;;;;;;2.90;2.70;;;;;;;1.12;81.00;100774.45;106163;1253;72609;-88
2023/03/30 01:55:03;;;;;;;3.10;2.90;;;;;;;1.10;81.09;100773.27;106052;1259;61213;-86
2023/03/30 01:57:36;;;;;;;3.00;2.70;;;;;;;1.10;81.20;100775.36;106349;1253;60294;-86
2023/03/30 02:00:11;;;;;;;2.60;2.30;;;;;;;1.10;81.27;100776.39;106421;1258;73962;-87
2023/03/30 02:02:45;;;;;;;4.30;2.70;;;;;;;1.10;81.12;100770.70;109236;1253;63581;-86
2023/03/30 02:05:16;;;;;;;2.90;2.60;;;;;;;1.10;81.20;100770.35;107158;1253;72334;-86
2023/03/30 02:07:55;;;;;;;2.70;2.50;;;;;;;1.13;81.30;100768.77;107314;1253;62174;-87
2023/03/30 02:10:30;;;;;;;4.60;2.30;;;;;;;1.17;81.24;100768.52;107864;1253;61825;-87
2023/03/30 02:12:58;;;;;;;3.20;2.60;;;;;;;1.18;80.91;100766.93;107361;1253;73065;-85
2023/03/30 02:15:35;;;;;;;2.50;2.30;;;;;;;1.18;81.01;100765.38;106730;1253;63746;-87
2023/03/30 02:18:03;;;;;;;4.00;3.20;;;;;;;1.18;80.96;100760.23;106880;1253;73700;-86
2023/03/30 02:20:32;;;;;;;3.60;2.90;;;;;;;1.20;81.11;100761.21;108292;1253;62186;-86
2023/03/30 02:23:04;;;;;;;2.40;2.20;;;;;;;1.22;81.24;100766.68;107143;1253;60387;-86
2023/03/30 02:25:37;;;;;;;2.70;2.50;;;;;;;1.25;81.14;100769.90;106254;1253;74035;-87
2023/03/30 02:28:08;;;;;;;4.80;2.80;;;;;;;1.26;80.97;100776.61;106126;1259;65017;-89
2023/03/30 02:30:41;;;;;;;2.50;2.30;;;;;;;1.27;80.81;100780.03;106152;1254;73667;-86
2023/03/30 02:33:18;;;;;;;2.40;2.20;;;;;;;1.26;80.55;100785.89;106245;1253;60307;-87
2023/03/30 02:36:12;;;;;;;3.00;2.70;;;;;;;1.24;80.66;100787.48;106886;1253;61317;-89
2023/03/30 02:39:05;;;;;;;2.60;2.30;;;;;;;1.23;80.73;100789.22;107353;1253;72648;-89
2023/03/30 02:41:45;;;;;;;3.20;2.10;;;;;;;1.23;80.62;100790.26;108145;1253;63943;-84
2023/03/30 02:44:49;;;;;;;3.30;2.90;;;;;;;1.23;80.73;100789.93;108884;1253;73638;-85
2023/03/30 02:47:44;;;;;;;2.50;1.90;;;;;;;1.21;80.59;100787.88;108354;1254;61738;-88
2023/03/30 02:50:53;;;;;;;2.80;2.20;;;;;;;1.18;80.72;100777.77;106492;1254;61356;-90
2023/03/30 02:53:45;;;;;;;2.80;2.20;;;;;;;1.18;80.53;100779.16;106088;1259;74335;-88
2023/03/30 02:56:32;;;;;;;1.90;1.70;;;;;;;1.17;80.67;100775.74;106309;1258;62860;-90
2023/03/30 02:59:05;;;;;;;2.10;1.90;;;;;;;1.15;80.71;100777.86;106436;1253;72654;-90
2023/03/30 03:01:36;;;;;;;2.40;2.20;;;;;;;1.12;80.71;100777.73;106532;1257;61938;-88
2023/03/30 03:04:14;;;;;;;2.60;1.80;;;;;;;1.09;80.90;100772.10;106312;1254;61054;-88
2023/03/30 03:07:12;;;;;;;2.20;2.00;;;;;;;1.11;81.11;100768.61;106439;1254;73851;-88
2023/03/30 03:09:44;;;;;;;2.10;2.00;;;;;;;1.13;80.99;100766.52;106329;1259;64682;-88
2023/03/30 03:12:13;;;;;;;1.80;1.70;;;;;;;1.14;81.11;100764.77;106499;1254;73679;-87
2023/03/30 03:15:00;;;;;;;2.40;1.70;;;;;;;1.16;81.27;100765.43;106449;1257;62020;-89
2023/03/30 03:17:33;;;;;;;2.00;1.60;;;;;;;1.17;81.21;100764.36;106441;1259;59964;-89
2023/03/30 03:20:10;;;;;;;2.30;2.10;;;;;;;1.18;81.07;100766.26;106346;1258;73962;-89
2023/03/30 03:22:40;;;;;;;1.70;1.60;;;;;;;1.20;81.02;100762.77;106520;1259;64768;-89
2023/03/30 03:25:09;;;;;;;1.70;1.60;;;;;;;1.20;81.10;100763.44;106231;1258;72557;-89
2023/03/30 03:28:01;;;;;;;2.70;2.10;;;;;;;1.17;80.93;100770.05;106061;1254;62232;-90
2023/03/30 03:30:36;;;;;;;3.10;1.90;;;;;;;1.17;81.04;100774.35;106207;1253;60117;-87
2023/03/30 03:33:12;;;;;;;2.30;2.10;;;;;;;1.20;80.94;100773.95;109479;1253;73714;-87
2023/03/30 03:35:44;;;;;;;2.20;1.90;;;;;;;1.24;80.78;100774.58;107971;1256;64993;-88
2023/03/30 03:38:13;;;;;;;2.30;1.80;;;;;;;1.25;80.53;100770.77;106387;1257;73569;-88
2023/03/30 03:40:41;;;;;;;2.90;1.60;;;;;;;1.26;80.55;100776.27;106382;1254;59768;-89
2023/03/30 03:43:09;;;;;;;2.90;2.40;;;;;;;1.23;80.38;100773.20;106296;1253;60281;-89
2023/03/30 03:45:41;;;;;;;2.70;1.50;;;;;;;1.22;80.29;100777.20;106276;1253;73925;-87
2023/03/30 03:48:10;;;;;;;2.20;1.70;;;;;;;1.21;80.22;100777.03;106423;1253;65052;-89
2023/03/30 03:50:50;;;;;;;2.10;1.60;;;;;;;1.20;80.32;100776.52;106589;1257;73488;-87
2023/03/30 03:53:20;;;;;;;2.20;1.80;;;;;;;1.18;80.17;100778.29;106515;1254;62181;-87
2023/03/30 03:55:50;;;;;;;1.80;1.70;;;;;;;1.14;79.91;100772.16;107061;1259;60395;-87
2023/03/30 03:58:21;;;;;;;1.50;1.40;;;;;;;1.10;80.05;100764.50;107845;1254;75496;-82
2023/03/30 04:01:01;;;;;;;2.60;2.20;;;;;;;1.13;80.26;100768.06;108735;1253;64044;-85
2023/03/30 04:03:31;;;;;;;2.00;1.70;;;;;;;1.13;80.01;100768.23;106330;1254;72552;-87
2023/03/30 04:06:01;;;;;;;1.70;1.60;;;;;;;1.14;80.05;100771.15;106294;1259;62374;-86
2023/03/30 04:08:30;;;;;;;2.50;1.60;;;;;;;1.14;80.09;100775.11;106531;1254;61289;-87
2023/03/30 04:11:23;;;;;;;2.20;1.20;;;;;;;1.16;80.01;100783.35;107730;1253;74273;-89
2023/03/30 04:14:19;;;;;;;1.40;1.30;;;;;;;1.18;79.97;100783.29;106418;1253;62987;-87
2023/03/30 04:17:06;;;;;;;1.80;1.70;;;;;;;1.21;79.89;100789.27;106967;1254;72714;-88
2023/03/30 04:19:45;;;;;;;1.70;1.60;;;;;;;1.23;79.80;100792.16;106780;1253;60454;-86
2023/03/30 04:22:41;;;;;;;2.90;1.60;;;;;;;1.28;79.43;100796.89;106611;1254;60444;-89
2023/03/30 04:25:30;;;;;;;1.50;1.40;;;;;;;1.28;79.04;100803.77;106888;1253;74880;-88
2023/03/30 04:28:03;;;;;;;2.00;1.80;;;;;;;1.27;78.93;100807.92;107635;1253;63664;-89
2023/03/30 04:30:57;;;;;;;1.50;1.40;;;;;;;1.28;78.69;100808.95;107100;1253;71843;-88
2023/03/30 04:33:54;;;;;;;1.60;1.50;;;;;;;1.25;78.51;100806.41;107483;1254;62447;-88
2023/03/30 04:36:42;;;;;;;1.40;1.30;;;;;;;1.19;78.61;100801.19;108396;1253;61319;-88
2023/03/30 04:39:37;;;;;;;2.10;1.70;;;;;;;1.18;78.78;100805.34;107246;1258;74771;-89
2023/03/30 04:42:38;;;;;;;1.80;1.60;;;;;;;1.20;78.64;100802.02;106960;1254;64967;-88
2023/03/30 04:45:20;;;;;;;1.80;1.60;;;;;;;1.21;78.63;100794.94;107584;1254;73567;-89
2023/03/30 04:47:49;;;;;;;2.10;2.00;;;;;;;1.22;78.59;100793.19;107029;1258;61493;-89
2023/03/30 04:50:40;;;;;;;1.90;1.40;;;;;;;1.23;78.68;100794.55;106599;1259;61399;-87
2023/03/30 04:53:29;;;;;;;1.80;1.70;;;;;;;1.24;78.56;100791.79;107337;1253;74936;-90
2023/03/30 04:56:17;;;;;;;1.80;1.70;;;;;;;1.25;78.34;100787.30;107246;1254;64758;-90
2023/03/30 04:59:03;;;;;;;1.50;1.40;;;;;;;1.26;78.42;100785.90;107354;1253;72491;-88
2023/03/30 05:01:52;;;;;;;1.50;1.40;;;;;;;1.28;78.41;100780.02;107365;1254;60333;-90
2023/03/30 05:04:50;;;;;;;1.70;1.50;;;;;;;1.31;78.13;100780.98;108116;1253;60262;-87
2023/03/30 05:07:38;;;;;;;2.10;1.90;;;;;;;1.30;77.99;100783.26;107866;1254;74860;-88
2023/03/30 05:10:33;;;;;;;2.10;1.90;;;;;;;1.28;77.93;100785.01;107130;1257;64525;-89
2023/03/30 05:13:25;;;;;;;3.10;1.50;;;;;;;1.27;78.00;100790.88;107170;1254;73683;-90
2023/03/30 05:16:22;;;;;;;2.70;1.60;;;;;;;1.27;77.57;100794.14;106728;1262;61178;-87
2023/03/30 05:19:12;;;;;;;2.10;1.90;;;;;;;1.29;77.70;100793.23;106476;1260;60965;-89
2023/03/30 05:21:43;;;;;;;1.80;1.70;;;;;;;1.32;78.02;100793.69;106543;1262;73593;-89
2023/03/30 05:24:31;;;;;;;2.10;1.50;;;;;;;1.33;77.39;100792.13;106693;1262;63636;-90
2023/03/30 05:27:15;;;;;;;1.20;1.10;;;;;;;1.33;77.27;100797.80;106663;1260;73557;-91
2023/03/30 05:30:08;;;;;;;1.80;1.70;;;;;;;1.34;77.38;100803.33;108445;1257;61201;-87
2023/03/30 05:33:17;;;;;;;1.60;1.30;;;;;;;1.37;77.18;100804.99;108535;1257;62405;-89
2023/03/30 05:36:49;;;;;;;1.60;1.50;;;;;;;1.41;77.29;100807.84;108803;1257;73233;-91
2023/03/30 05:43:14;;;;;;;1.70;1.60;;;;;;;1.50;76.79;100814.22;98209;1268;71971;-95
2023/03/30 05:47:02;;;;;;;1.90;1.50;;;;;;;1.52;76.80;100816.39;108149;1260;58496;-92
2023/03/30 05:50:50;;;;;;;2.40;1.70;;;;;;;1.53;76.79;100820.85;108664;1265;59397;-90
2023/03/30 05:54:29;;;;;;;2.20;1.80;;;;;;;1.54;76.80;100821.72;107444;1271;74596;-94
2023/03/30 06:01:04;;;;;;;1.10;1.00;;;;;;;1.61;76.92;100828.98;108555;1265;72767;-94
2023/03/30 06:04:06;;;;;;;2.40;1.70;;;;;;;1.67;76.66;100832.98;107358;1268;60296;-93
2023/03/30 06:06:47;;;;;;;1.60;1.30;;;;;;;1.73;76.52;100839.95;108044;1268;60298;-94
2023/03/30 06:09:46;;;;;;;1.80;1.40;;;;;;;1.74;76.30;100840.79;107818;1271;72819;-93
2023/03/30 06:12:38;;;;;;;1.70;1.30;;;;;;;1.72;76.05;100843.76;107955;1270;63573;-95
2023/03/30 06:15:52;;;;;;;4.50;2.30;;;;;;;1.69;76.28;100842.27;108448;1269;71055;-93
2023/03/30 06:18:44;;;;;;;1.70;1.60;;;;;;;1.67;76.25;100840.59;107300;1271;58459;-92
2023/03/30 06:21:16;;;;;;;2.60;1.50;;;;;;;1.64;76.11;100839.76;108035;1270;60681;-91
2023/03/30 06:24:41;;;;;;;1.40;1.30;;;;;;;1.64;75.99;100844.42;107427;1270;75875;-90
2023/03/30 06:27:14;;;;;;;4.10;1.70;;;;;;;1.61;75.92;100847.23;107136;1268;63992;-92
2023/03/30 06:29:50;;;;;;;1.70;1.40;;;;;;;1.60;76.13;100852.43;107194;1271;73382;-94
2023/03/30 06:32:24;;;;;;;1.70;1.60;;;;;;;1.60;76.31;100852.78;108473;1271;61637;-90
2023/03/30 06:35:16;;;;;;;4.70;1.50;;;;;;;1.61;76.19;100855.35;108068;1268;60786;-92
2023/03/30 06:38:09;;;;;;;1.80;1.60;;;;;;;1.61;76.07;100848.45;107319;1271;73941;-91
2023/03/30 06:40:55;;;;;;;1.70;1.20;;;;;;;1.66;75.92;100850.59;108350;1271;64878;-90
2023/03/30 06:43:45;;;;;;;1.40;1.30;;;;;;;1.69;75.72;100851.75;108393;1271;72660;-90
2023/03/30 06:49:38;;;;;;;1.70;1.50;;;;;;;1.76;75.67;100848.85;108603;1265;60560;-92
2023/03/30 06:52:39;;;;;;;1.10;1.00;;;;;;;1.75;75.48;100847.66;108161;1265;73239;-92
2023/03/30 06:55:11;;;;;;;1.40;1.30;;;;;;;1.78;75.37;100852.09;108457;1265;63791;-90
2023/03/30 06:58:40;;;;;;;1.40;1.20;;;;;;;1.81;75.19;100850.46;108786;1264;71972;-91
2023/03/30 07:02:02;;;;;;;2.40;1.50;;;;;;;1.81;75.29;100849.61;108098;1264;59367;-87
2023/03/30 07:05:07;;;;;;;1.80;1.20;;;;;;;1.85;75.12;100856.59;108022;1267;60715;-88
2023/03/30 07:11:03;;;;;;;2.80;1.40;;;;;;;1.85;74.57;100855.39;105905;1292;599708;-87
2023/03/30 07:13:43;;;;;;;2.10;1.40;;;;;;;1.86;74.56;100851.73;108493;1270;62209;-89
2023/03/30 07:20:26;;;;;;;1.50;1.30;;;;;;;1.93;74.66;100846.27;107998;1271;71409;-88
2023/03/30 07:23:10;;;;;;;1.70;1.30;;;;;;;1.95;74.26;100848.98;108466;1268;63830;-89
2023/03/30 07:25:40;;;;;;;1.70;1.40;;;;;;;1.94;73.76;100845.20;105570;1268;965953;-88
2023/03/30 07:28:27;;;;;;;1.60;1.10;;;;;;;1.94;73.75;100847.45;106457;1266;59863;-88
2023/03/30 07:31:05;;;;;;;1.20;1.10;;;;;;;1.94;73.33;100845.05;107404;1267;60351;-88
2023/03/30 07:33:37;;;;;;;2.20;1.60;;;;;;;1.92;73.40;100844.23;108261;1267;72079;-86
2023/03/30 07:36:07;;;;;;;2.60;2.40;;;;;;;1.92;73.97;100843.36;108146;1266;63501;-88
2023/03/30 07:38:38;;;;;;;2.70;2.50;;;;;;;1.95;73.84;100843.48;107466;1267;71329;-86
2023/03/30 07:41:09;;;;;;;2.30;2.10;;;;;;;1.96;73.67;100844.31;107458;1266;61162;-88
2023/03/30 07:43:41;;;;;;;2.10;2.00;;;;;;;1.94;73.86;100845.04;107804;1267;59957;-87
2023/03/30 07:46:12;;;;;;;1.90;1.80;;;;;;;1.92;73.75;100842.15;107818;1266;74017;-86
2023/03/30 07:48:47;;;;;;;1.60;1.40;;;;;;;1.90;73.86;100839.62;108071;1265;63991;-86
2023/03/30 07:51:16;;;;;;;2.40;1.20;;;;;;;1.91;73.85;100839.23;107563;1262;72598;-86
2023/03/30 07:54:02;;;;;;;1.50;1.40;;;;;;;1.92;73.86;100839.73;107429;1257;61554;-85
2023/03/30 07:56:51;;;;;;;1.60;1.50;;;;;;;1.94;74.01;100835.20;107770;1257;60613;-87
2023/03/30 07:59:22;;;;;;;2.20;2.00;;;;;;;1.97;74.17;100832.38;107577;1263;72697;-86
2023/03/30 08:01:53;;;;;;;1.50;1.40;;;;;;;1.99;74.10;100832.86;107587;1261;63838;-86
2023/03/30 08:04:39;;;;;;;1.60;1.40;;;;;;;1.96;73.94;100833.45;108209;1258;72461;-87
2023/03/30 08:07:15;;;;;;;1.80;1.30;;;;;;;1.96;73.85;100832.39;108413;1257;59641;-86
2023/03/30 08:09:45;;;;;;;2.80;1.70;;;;;;;2.00;73.72;100834.75;108195;1256;60210;-84
2023/03/30 08:12:14;;;;;;;2.30;1.70;;;;;;;2.03;73.72;100832.77;107841;1258;72968;-86
2023/03/30 08:14:43;;;;;;;1.70;1.30;;;;;;;2.04;73.57;100833.95;107933;1260;62861;-86
2023/03/30 08:17:14;;;;;;;1.60;1.50;;;;;;;2.07;73.94;100835.27;107166;1260;72924;-88
2023/03/30 08:19:47;;;;;;;2.60;1.50;;;;;;;2.08;73.76;100835.59;107316;1262;61154;-87
2023/03/30 08:22:18;;;;;;;1.40;1.10;;;;;;;2.10;73.51;100830.38;107668;1257;60666;-87
2023/03/30 08:24:57;;;;;;;1.70;1.60;;;;;;;2.12;73.30;100824.84;108338;1259;74216;-86
2023/03/30 08:27:42;;;;;;;4.50;2.70;;;;;;;2.12;73.74;100825.86;107579;1259;62603;-87
2023/03/30 08:30:15;;;;;;;2.70;1.20;;;;;;;2.14;73.74;100823.77;107131;1259;72405;-89
2023/03/30 08:32:45;;;;;;;1.50;1.50;;;;;;;2.16;73.74;100825.09;106618;1267;62084;-86
2023/03/30 08:35:13;;;;;;;1.40;1.30;;;;;;;2.18;73.63;100823.81;107670;1259;61040;-87
2023/03/30 08:37:44;;;;;;;1.30;1.20;;;;;;;2.22;73.44;100823.57;107403;1260;73008;-87
2023/03/30 08:40:14;;;;;;;1.40;1.30;;;;;;;2.22;72.79;100826.33;108133;1259;64544;-86
2023/03/30 08:43:05;;;;;;;1.20;1.10;;;;;;;2.21;72.54;100825.83;107327;1259;73014;-86
2023/03/30 08:45:38;;;;;;;2.00;1.70;;;;;;;2.22;72.47;100826.51;106757;1264;59621;-87
2023/03/30 08:48:15;;;;;;;2.70;1.70;;;;;;;2.24;72.39;100824.21;106973;1263;61819;-87
2023/03/30 08:50:56;;;;;;;2.20;1.40;;;;;;;2.23;72.14;100813.90;106893;1259;74304;-87
2023/03/30 08:53:27;;;;;;;1.50;1.40;;;;;;;2.18;72.03;100808.48;106928;1259;63164;-86
2023/03/30 08:56:12;;;;;;;2.30;1.60;;;;;;;2.15;71.53;100811.83;107042;1259;72184;-86
2023/03/30 08:58:50;;;;;;;1.50;1.40;;;;;;;2.12;70.97;100813.96;106630;1263;62849;-84
2023/03/30 09:01:34;;;;;;;1.50;1.40;;;;;;;2.07;70.97;100810.78;107058;1260;60275;-86
2023/03/30 09:04:26;;;;;;;1.70;1.20;;;;;;;2.04;70.48;100807.23;107392;1259;73080;-85
2023/03/30 09:06:59;;;;;;;1.50;1.10;;;;;;;2.06;70.68;100809.77;106348;1262;63629;-87
2023/03/30 09:09:29;;;;;;;2.40;0.90;;;;;;;2.08;70.42;100811.29;106894;1259;74151;-87
2023/03/30 09:12:06;;;;;;;1.40;1.30;;;;;;;2.09;70.05;100816.80;107359;1263;59278;-88
2023/03/30 09:14:38;;;;;;;3.80;1.00;;;;;;;2.09;69.76;100816.44;106667;1261;60204;-85
2023/03/30 09:17:15;;;;;;;0.90;0.90;;;;;;;2.11;69.99;100814.85;106570;1259;72911;-87
2023/03/30 09:20:08;;;;;;;1.50;1.30;;;;;;;2.13;69.39;100812.55;107457;1263;63713;-89
2023/03/30 09:22:39;;;;;;;3.00;1.40;;;;;;;2.13;69.17;100816.52;107417;1263;71649;-88
2023/03/30 09:25:15;;;;;;;1.30;1.20;;;;;;;2.15;68.85;100812.35;106342;1259;59735;-89
2023/03/30 09:28:04;;;;;;;1.30;1.00;;;;;;;2.19;68.53;100814.14;106302;1267;60344;-86
2023/03/30 09:30:47;;;;;;;1.20;1.20;;;;;;;2.23;68.37;100813.20;106069;1265;74598;-87
2023/03/30 09:33:37;;;;;;;;;;;;;;;2.22;68.52;100813.05;105974;1263;63958;-87
2023/03/30 09:36:11;;;;;;;1.90;1.40;;;;;;;2.17;67.93;100814.19;106216;1259;72657;-88
2023/03/30 09:38:49;;;;;;;2.40;2.10;;;;;;;2.12;67.74;100816.89;106298;1265;60421;-87
2023/03/30 09:41:35;;;;;;;8.80;6.10;;;;;;;2.07;67.50;100812.33;106233;1259;61317;-86
2023/03/30 09:44:11;;;;;;;10.10;7.30;;;;;;;2.06;67.78;100815.63;106111;1259;72710;-87
2023/03/30 09:46:45;;;;;;;2.60;2.40;;;;;;;2.08;68.09;100824.40;106189;1260;64947;-88
2023/03/30 09:49:14;;;;;;;2.90;2.70;;;;;;;2.09;68.15;100824.38;105950;1265;73639;-88
2023/03/30 09:52:02;;;;;;;1.70;1.60;;;;;;;2.09;68.18;100826.09;105962;1265;60587;-87
2023/03/30 09:54:36;;;;;;;2.70;2.50;;;;;;;2.08;68.32;100825.08;107232;1259;60304;-86
2023/03/30 09:57:30;;;;;;;5.30;3.40;;;;;;;2.05;68.44;100827.89;105948;1261;74034;-87
2023/03/30 10:00:00;;;;;;;2.60;2.40;;;;;;;2.00;68.76;100828.69;106967;1259;64807;-86
2023/03/30 10:03:04;;;;;;;3.60;2.50;;;;;;;1.99;69.19;100823.38;107164;1259;71654;-87
2023/03/30 10:05:50;;;;;;;;;;;;;;;;;;;;;
2023/03/30 10:09:05;;;;;;;5.00;3.40;;;;;;;1.98;69.24;100813.39;107193;1264;59501;-86
2023/03/30 10:11:40;;;;;;;3.00;2.50;;;;;;;2.02;69.14;100811.42;106353;1262;73009;-87
2023/03/30 10:14:35;;;;;;;4.80;2.20;;;;;;;2.04;69.02;100809.81;106406;1267;63829;-86
2023/03/30 10:17:05;;;;;;;5.10;3.00;;;;;;;2.04;68.98;100801.01;106968;1262;73502;-87
2023/03/30 10:19:35;;;;;;;2.20;2.00;;;;;;;2.07;69.07;100798.20;107341;1264;59550;-86
2023/03/30 10:22:21;;;;;;;2.90;2.30;;;;;;;2.10;69.06;100796.24;106992;1262;59967;-85
2023/03/30 10:25:37;;;;;;;2.00;1.60;;;;;;;2.14;69.13;100796.00;107650;1262;73679;-86
2023/03/30 10:28:09;;;;;;;2.40;1.70;;;;;;;2.08;69.32;100789.56;106066;1264;64775;-87
2023/03/30 10:30:39;;;;;;;2.00;1.70;;;;;;;2.04;69.73;100791.88;107644;1269;72579;-87
2023/03/30 10:33:08;;;;;;;2.80;2.60;;;;;;;2.01;69.89;100790.75;107846;1263;59608;-88
2023/03/30 10:35:37;;;;;;;3.70;3.20;;;;;;;1.98;70.28;100789.42;108502;1262;59994;-88
2023/03/30 10:38:09;;;;;;;2.30;2.10;;;;;;;1.97;70.42;100781.35;107978;1268;71977;-87
2023/03/30 10:40:39;;;;;;;2.80;2.50;;;;;;;1.96;70.32;100778.79;107154;1259;64861;-85
2023/03/30 10:43:13;;;;;;;2.70;2.10;;;;;;;1.95;70.50;100773.11;108150;1261;72637;-83
2023/03/30 10:45:46;;;;;;;2.20;2.00;;;;;;;1.96;70.57;100765.53;106559;1261;60883;-87
2023/03/30 10:48:31;;;;;;;1.50;1.40;;;;;;;1.97;70.94;100767.40;106056;1259;59996;-86
2023/03/30 10:51:12;;;;;;;2.80;1.70;;;;;;;1.96;71.14;100763.62;106011;1264;72981;-87
2023/03/30 10:53:51;;;;;;;1.90;1.70;;;;;;;1.99;71.57;100755.63;105938;1264;65235;-86
2023/03/30 10:56:47;;;;;;;1.40;1.20;;;;;;;2.04;71.64;100751.19;106464;1261;73742;-86
2023/03/30 10:59:39;;;;;;;2.30;2.10;;;;;;;2.11;71.52;100745.69;105952;1260;59552;-87
2023/03/30 11:02:22;;;;;;;1.90;1.70;;;;;;;2.15;71.33;100744.23;107154;1259;61323;-85
2023/03/30 11:05:29;;;;;;;4.10;2.40;;;;;;;2.18;71.40;100738.98;108923;1265;72400;-83
2023/03/30 11:08:16;;;;;;;6.20;3.50;;;;;;;2.20;71.23;100733.40;109188;1260;65398;-88
2023/03/30 11:10:48;;;;;;;10.20;2.60;;;;;;;2.20;71.32;100729.27;109040;1259;73061;-85
2023/03/30 11:13:49;;;;;;;8.10;2.90;;;;;;;2.21;71.16;100730.80;107385;1259;59709;-88
2023/03/30 11:16:22;;;;;;;2.60;2.00;;;;;;;2.19;71.26;100726.89;106474;1259;60162;-89
2023/03/30 11:19:02;;;;;;;3.30;1.80;;;;;;;2.19;71.15;100723.77;106372;1265;74129;-89
2023/03/30 11:21:36;;;;;;;3.80;3.40;;;;;;;2.20;70.94;100724.78;106451;1263;65086;-87
2023/03/30 11:24:11;;;;;;;10.00;5.50;;;;;;;2.23;71.36;100721.44;106239;1263;72703;-87
2023/03/30 11:26:44;;;;;;;3.80;3.20;;;;;;;2.24;71.54;100719.50;106545;1263;60863;-88
2023/03/30 11:29:38;;;;;;;4.90;3.00;;;;;;;2.28;71.64;100719.25;106743;1263;60318;-87
2023/03/30 11:32:14;;;;;;;4.10;2.60;;;;;;;2.31;71.42;100719.70;106385;1263;74056;-88
2023/03/30 11:34:59;;;;;;;3.90;2.90;;;;;;;2.32;71.33;100713.98;106479;1260;65258;-88
2023/03/30 11:37:30;;;;;;;3.30;2.40;;;;;;;2.36;71.75;100712.14;105847;1259;73946;-87
2023/03/30 11:40:20;;;;;;;2.30;2.00;;;;;;;2.44;71.55;100710.38;106274;1259;62388;-88
2023/03/30 11:42:50;;;;;;;3.20;1.70;;;;;;;2.48;71.15;100707.36;107216;1259;60376;-87
2023/03/30 11:47:56;;;;;;;2.70;2.40;;;;;;;2.55;70.61;100698.05;104913;1284;614496;-87
2023/03/30 11:51:01;;;;;;;3.40;3.00;;;;;;;2.56;70.43;100698.88;106273;1272;60647;-88
2023/03/30 11:53:47;;;;;;;2.10;2.00;;;;;;;2.56;69.67;100698.19;105574;1273;61402;-87
2023/03/30 11:56:45;;;;;;;3.50;2.30;;;;;;;2.49;69.94;100694.38;105138;1272;70731;-87
2023/03/30 11:59:50;;;;;;;2.00;1.90;;;;;;;2.46;70.28;100693.25;106086;1275;64689;-90
2023/03/30 12:02:54;;;;;;;4.70;3.00;;;;;;;2.47;70.32;100694.64;105265;1275;71318;-86
2023/03/30 12:05:42;;;;;;;7.80;3.90;;;;;;;2.50;69.91;100696.09;107137;1276;60550;-87
2023/03/30 12:08:24;;;;;;;9.60;4.50;;;;;;;2.49;70.08;100690.41;105645;1278;62100;-87
2023/03/30 12:11:00;;;;;;;2.80;2.60;;;;;;;2.45;70.15;100690.19;105608;1277;71970;-90
2023/03/30 12:13:37;;;;;;;3.90;3.50;;;;;;;2.45;69.97;100689.85;105301;1278;64866;-86
2023/03/30 12:16:43;;;;;;;4.80;3.40;;;;;;;2.45;70.49;100688.29;105224;1280;75170;-88
2023/03/30 12:19:40;;;;;;;11.20;7.20;;;;;;;2.49;70.56;100681.46;105380;1279;62705;-86
2023/03/30 12:22:24;;;;;;;3.60;2.80;;;;;;;2.57;70.98;100681.95;104707;1282;60098;-88
2023/03/30 12:25:22;;;;;;;2.80;1.70;;;;;;;2.60;70.42;100681.52;104496;1280;74020;-86
2023/03/30 12:28:15;;;;;;;2.70;1.90;;;;;;;2.64;70.28;100682.63;104750;1279;63693;-87
2023/03/30 12:30:53;;;;;;;1.70;1.60;;;;;;;2.69;69.87;100682.66;105361;1274;73664;-85
2023/03/30 12:33:48;;;;;;;2.40;2.00;;;;;;;2.72;69.73;100678.61;106558;1274;59857;-87
2023/03/30 12:36:47;;;;;;;;;;;;;;;2.72;69.70;100679.50;107795;1273;60656;-87
2023/03/30 12:39:56;;;;;;;3.20;2.90;;;;;;;2.73;69.72;100671.70;106247;1272;77926;-89
2023/03/30 12:42:38;;;;;;;7.70;3.70;;;;;;;2.70;69.45;100670.35;107952;1259;64792;-88
2023/03/30 12:45:29;;;;;;;7.90;4.60;;;;;;;2.72;69.66;100665.48;108045;1263;72680;-87
2023/03/30 12:48:26;;;;;;;3.10;2.40;;;;;;;2.72;69.58;100659.46;107565;1260;59811;-87
2023/03/30 12:51:03;;;;;;;2.20;1.60;;;;;;;2.72;69.52;100662.23;108061;1258;60194;-87
2023/03/30 12:53:35;;;;;;;2.50;1.60;;;;;;;2.71;69.27;100661.55;107914;1260;73893;-87
2023/03/30 12:56:25;;;;;;;1.70;1.60;;;;;;;2.70;69.05;100660.03;107636;1259;64381;-88